createdAt,value
2018-02-22T00:00:12.754Z,67.74
2018-02-22T00:00:53.275Z,67.65
2018-02-22T00:01:33.850Z,67.27
2018-02-22T00:02:14.500Z,67.55
2018-02-22T00:02:55.115Z,67.46
2018-02-22T00:03:35.558Z,67.36
2018-02-22T00:04:16.118Z,67.18
2018-02-22T00:04:56.809Z,67.36
2018-02-22T00:05:37.318Z,67.65
2018-02-22T00:06:17.896Z,67.55
2018-02-22T00:06:58.478Z,67.93
2018-02-22T00:07:38.988Z,67.65
2018-02-22T00:08:19.564Z,67.83
2018-02-22T00:09:00.175Z,68.4
2018-02-22T00:09:40.687Z,68.12
2018-02-22T00:10:21.239Z,68.02
2018-02-22T00:11:01.759Z,67.46
2018-02-22T00:11:42.308Z,68.02
2018-02-22T00:12:22.843Z,67.93
2018-02-22T00:13:03.392Z,68.21
2018-02-22T00:13:43.932Z,68.88
2018-02-22T00:14:24.518Z,68.31
2018-02-22T00:15:05.084Z,67.74
2018-02-22T00:15:46.445Z,67.93
2018-02-22T00:16:26.218Z,67.93
2018-02-22T00:17:06.719Z,68.02
2018-02-22T00:17:47.273Z,67.36
2018-02-22T00:18:27.832Z,67.08
2018-02-22T00:19:08.406Z,67.36
2018-02-22T00:19:48.969Z,67.55
2018-02-22T00:20:29.532Z,67.55
2018-02-22T00:21:10.124Z,67.74
2018-02-22T00:21:50.611Z,67.55
2018-02-22T00:22:31.144Z,68.59
2018-02-22T00:23:11.731Z,68.31
2018-02-22T00:23:52.273Z,68.5
2018-02-22T00:24:32.844Z,68.4
2018-02-22T00:25:13.404Z,68.5
2018-02-22T00:25:53.966Z,68.31
2018-02-22T00:26:34.521Z,68.59
2018-02-22T00:27:15.087Z,68.59
2018-02-22T00:27:55.636Z,68.59
2018-02-22T00:28:36.202Z,68.79
2018-02-22T00:29:16.790Z,68.31
2018-02-22T00:29:57.340Z,68.46
2018-02-22T00:30:37.925Z,68.65
2018-02-22T00:31:18.495Z,68.59
2018-02-22T00:31:59.076Z,68.56
2018-02-22T00:32:39.598Z,69.03
2018-02-22T00:33:20.167Z,68.84
2018-02-22T00:34:00.734Z,68.79
2018-02-22T00:34:41.289Z,68.98
2018-02-22T00:35:21.862Z,68.31
2018-02-22T00:36:02.465Z,68.27
2018-02-22T00:36:43.028Z,68.94
2018-02-22T00:37:23.587Z,69.45
2018-02-22T00:38:04.146Z,68.59
2018-02-22T00:38:44.711Z,68.69
2018-02-22T00:39:25.300Z,69.13
2018-02-22T00:40:05.820Z,69.17
2018-02-22T00:40:46.379Z,68.79
2018-02-22T00:41:26.928Z,68.31
2018-02-22T00:42:07.496Z,68.5
2018-02-22T00:42:48.058Z,68.59
2018-02-22T00:43:28.628Z,68.59
2018-02-22T00:44:09.196Z,68.59
2018-02-22T00:44:49.755Z,68.5
2018-02-22T00:45:30.320Z,68.4
2018-02-22T00:46:10.882Z,68.31
2018-02-22T00:46:51.438Z,68.5
2018-02-22T00:47:31.996Z,68.69
2018-02-22T00:48:12.577Z,68.5
2018-02-22T00:48:53.132Z,68.69
2018-02-22T00:49:33.692Z,68.88
2018-02-22T00:50:14.244Z,68.4
2018-02-22T00:50:54.815Z,68.5
2018-02-22T00:51:35.380Z,68.4
2018-02-22T00:52:15.932Z,67.93
2018-02-22T00:52:56.481Z,68.4
2018-02-22T00:53:37.047Z,68.4
2018-02-22T00:54:17.614Z,68.31
2018-02-22T00:54:58.200Z,68.21
2018-02-22T00:55:38.737Z,68.79
2018-02-22T00:56:19.288Z,68.4
2018-02-22T00:56:59.844Z,68.4
2018-02-22T00:57:40.425Z,68.31
2018-02-22T00:58:20.975Z,68.4
2018-02-22T00:59:01.536Z,68.4
2018-02-22T00:59:42.085Z,68.59
2018-02-22T01:00:22.639Z,68.59
2018-02-22T01:01:03.196Z,68.4
2018-02-22T01:01:43.726Z,68.4
2018-02-22T01:02:24.275Z,68.31
2018-02-22T01:03:04.847Z,68.59
2018-02-22T01:03:45.414Z,68.4
2018-02-22T01:04:26.010Z,68.4
2018-02-22T01:05:06.557Z,68.59
2018-02-22T01:05:47.105Z,68.79
2018-02-22T01:06:27.674Z,68.56
2018-02-22T01:07:08.235Z,68.65
2018-02-22T01:07:48.790Z,68.84
2018-02-22T01:08:29.344Z,68.84
2018-02-22T01:09:09.875Z,68.79
2018-02-22T01:09:50.431Z,68.59
2018-02-22T01:10:30.976Z,68.56
2018-02-22T01:11:11.535Z,68.59
2018-02-22T01:11:52.144Z,68.69
2018-02-22T01:12:32.698Z,68.27
2018-02-22T01:13:13.252Z,68.4
2018-02-22T01:13:53.815Z,68.59
2018-02-22T01:14:34.367Z,68.94
2018-02-22T01:15:14.925Z,68.94
2018-02-22T01:15:55.477Z,69.32
2018-02-22T01:16:36.075Z,69.41
2018-02-22T01:17:16.638Z,69.6
2018-02-22T01:17:57.182Z,68.94
2018-02-22T01:18:37.735Z,68.88
2018-02-22T01:19:18.291Z,68.4
2018-02-22T01:19:58.848Z,68.37
2018-02-22T01:20:39.400Z,68.65
2018-02-22T01:21:19.955Z,68.75
2018-02-22T01:22:00.509Z,68.79
2018-02-22T01:22:41.069Z,68.79
2018-02-22T01:23:21.630Z,68.79
2018-02-22T01:24:02.190Z,68.79
2018-02-22T01:24:42.751Z,68.79
2018-02-22T01:25:23.324Z,68.5
2018-02-22T01:26:03.878Z,68.59
2018-02-22T01:26:44.418Z,68.59
2018-02-22T01:27:24.966Z,68.69
2018-02-22T01:28:05.527Z,68.88
2018-02-22T01:28:46.092Z,68.21
2018-02-22T01:29:26.639Z,68.5
2018-02-22T01:30:07.190Z,68.21
2018-02-22T01:30:47.745Z,68.4
2018-02-22T01:31:28.336Z,68.27
2018-02-22T01:32:08.901Z,68.65
2018-02-22T01:32:49.456Z,68.94
2018-02-22T01:33:29.997Z,68.88
2018-02-22T01:34:10.547Z,68.84
2018-02-22T01:34:51.107Z,69.64
2018-02-22T01:35:31.657Z,68.5
2018-02-22T01:36:12.218Z,69.07
2018-02-22T01:36:52.765Z,68.5
2018-02-22T01:37:33.318Z,68.69
2018-02-22T01:38:13.884Z,68.59
2018-02-22T01:38:54.447Z,68.59
2018-02-22T01:39:35.000Z,68.21
2018-02-22T01:40:15.549Z,68.69
2018-02-22T01:40:56.093Z,68.31
2018-02-22T01:41:36.661Z,68.21
2018-02-22T01:42:17.219Z,68.5
2018-02-22T01:42:57.820Z,68.69
2018-02-22T01:43:38.371Z,68.59
2018-02-22T01:44:18.929Z,68.59
2018-02-22T01:44:59.472Z,68.79
2018-02-22T01:45:40.025Z,68.21
2018-02-22T01:46:20.582Z,68.31
2018-02-22T01:47:01.148Z,68.5
2018-02-22T01:47:41.700Z,68.4
2018-02-22T01:48:22.256Z,68.4
2018-02-22T01:49:02.818Z,68.4
2018-02-22T01:49:43.372Z,68.27
2018-02-22T01:50:23.936Z,68.56
2018-02-22T01:51:04.483Z,68.75
2018-02-22T01:51:45.053Z,69.03
2018-02-22T01:52:25.618Z,69.22
2018-02-22T01:53:06.224Z,69.6
2018-02-22T01:53:46.794Z,69.32
2018-02-22T01:54:27.353Z,69.6
2018-02-22T01:55:07.889Z,69.6
2018-02-22T01:55:48.451Z,69.41
2018-02-22T01:56:29.018Z,69.13
2018-02-22T01:57:09.567Z,69.51
2018-02-22T01:57:50.152Z,69.03
2018-02-22T01:58:30.943Z,69.03
2018-02-22T01:59:11.484Z,69.17
2018-02-22T01:59:52.069Z,68.75
2018-02-22T02:00:32.950Z,69.13
2018-02-22T02:01:13.500Z,69.13
2018-02-22T02:01:54.054Z,69.32
2018-02-22T02:02:34.614Z,69.32
2018-02-22T02:03:15.359Z,69.03
2018-02-22T02:03:55.921Z,69.45
2018-02-22T02:04:36.459Z,68.98
2018-02-22T02:05:17.008Z,68.79
2018-02-22T02:05:57.558Z,68.31
2018-02-22T02:06:38.158Z,68.56
2018-02-22T02:07:18.630Z,68.31
2018-02-22T02:07:59.185Z,68.5
2018-02-22T02:08:39.760Z,68.69
2018-02-22T02:09:20.310Z,68.79
2018-02-22T02:10:00.872Z,68.88
2018-02-22T02:10:41.420Z,68.79
2018-02-22T02:11:21.986Z,68.59
2018-02-22T02:12:02.536Z,68.12
2018-02-22T02:12:43.098Z,68.59
2018-02-22T02:13:23.648Z,68.4
2018-02-22T02:14:04.212Z,68.31
2018-02-22T02:14:44.776Z,68.79
2018-02-22T02:15:25.342Z,68.31
2018-02-22T02:16:05.920Z,68.31
2018-02-22T02:16:46.461Z,68.31
2018-02-22T02:17:27.032Z,68.59
2018-02-22T02:18:07.584Z,68.12
2018-02-22T02:18:48.138Z,68.12
2018-02-22T02:19:28.681Z,68.31
2018-02-22T02:20:09.238Z,68.21
2018-02-22T02:20:49.770Z,68.18
2018-02-22T02:21:30.312Z,68.27
2018-02-22T02:22:10.871Z,68.59
2018-02-22T02:22:51.409Z,68.31
2018-02-22T02:23:31.979Z,68.59
2018-02-22T02:24:12.551Z,68.65
2018-02-22T02:24:53.105Z,68.37
2018-02-22T02:25:33.678Z,68.75
2018-02-22T02:26:14.241Z,68.56
2018-02-22T02:26:54.807Z,68.84
2018-02-22T02:27:35.383Z,69.13
2018-02-22T02:28:15.936Z,68.75
2018-02-22T02:28:56.498Z,68.75
2018-02-22T02:29:37.047Z,69.13
2018-02-22T02:30:17.605Z,69.13
2018-02-22T02:30:58.165Z,69.03
2018-02-22T02:31:38.728Z,69.13
2018-02-22T02:32:19.294Z,69.6
2018-02-22T02:32:59.851Z,68.75
2018-02-22T02:33:40.420Z,69.22
2018-02-22T02:34:20.993Z,69.6
2018-02-22T02:35:01.559Z,69.22
2018-02-22T02:35:42.133Z,69.41
2018-02-22T02:36:22.676Z,69.22
2018-02-22T02:37:03.240Z,69.6
2018-02-22T02:37:43.804Z,69.22
2018-02-22T02:38:24.355Z,69.6
2018-02-22T02:39:04.916Z,69.89
2018-02-22T02:39:45.473Z,69.79
2018-02-22T02:40:26.024Z,69.89
2018-02-22T02:41:06.601Z,69.7
2018-02-22T02:41:47.118Z,69.6
2018-02-22T02:42:27.702Z,70.07
2018-02-22T02:43:08.246Z,69.32
2018-02-22T02:43:48.802Z,69.41
2018-02-22T02:44:29.372Z,69.13
2018-02-22T02:45:09.917Z,69.6
2018-02-22T02:45:50.482Z,69.6
2018-02-22T02:46:31.029Z,69.98
2018-02-22T02:47:11.572Z,69.89
2018-02-22T02:47:52.133Z,69.41
2018-02-22T02:48:32.692Z,69.22
2018-02-22T02:49:13.273Z,69.32
2018-02-22T02:49:53.832Z,69.41
2018-02-22T02:50:34.391Z,69.51
2018-02-22T02:51:14.937Z,69.32
2018-02-22T02:51:55.570Z,69.79
2018-02-22T02:52:36.121Z,69.89
2018-02-22T02:53:16.688Z,69.6
2018-02-22T02:53:57.976Z,69.41
2018-02-22T02:54:38.538Z,69.89
2018-02-22T02:55:19.090Z,69.98
2018-02-22T02:55:59.636Z,69.89
2018-02-22T02:56:40.193Z,70.07
2018-02-22T02:57:20.757Z,70.07
2018-02-22T02:58:01.313Z,69.79
2018-02-22T02:58:41.864Z,69.89
2018-02-22T02:59:22.414Z,69.79
2018-02-22T03:00:02.977Z,69.6
2018-02-22T03:00:43.527Z,69.95
2018-02-22T03:01:24.089Z,70.04
2018-02-22T03:02:04.652Z,70.42
2018-02-22T03:02:45.218Z,70.61
2018-02-22T03:03:25.836Z,70.32
2018-02-22T03:04:06.333Z,70.45
2018-02-22T03:04:46.879Z,70.51
2018-02-22T03:05:27.430Z,70.51
2018-02-22T03:06:07.976Z,70.89
2018-02-22T03:06:48.538Z,70.23
2018-02-22T03:07:29.109Z,70.45
2018-02-22T03:08:09.669Z,70.32
2018-02-22T03:08:50.225Z,71.02
2018-02-22T03:09:30.782Z,70.36
2018-02-22T03:10:11.329Z,70.74
2018-02-22T03:10:51.884Z,70.45
2018-02-22T03:11:32.454Z,70.55
2018-02-22T03:12:13.029Z,69.79
2018-02-22T03:12:53.593Z,70.17
2018-02-22T03:13:34.151Z,70.07
2018-02-22T03:14:14.703Z,69.98
2018-02-22T03:14:55.261Z,70.07
2018-02-22T03:15:35.823Z,70.26
2018-02-22T03:16:16.382Z,69.98
2018-02-22T03:16:56.955Z,69.98
2018-02-22T03:17:37.500Z,69.89
2018-02-22T03:18:18.062Z,70.17
2018-02-22T03:18:58.603Z,70.36
2018-02-22T03:19:39.159Z,70.64
2018-02-22T03:20:19.710Z,70.83
2018-02-22T03:21:00.264Z,69.98
2018-02-22T03:21:40.832Z,70.07
2018-02-22T03:22:21.378Z,69.98
2018-02-22T03:23:01.940Z,70.07
2018-02-22T03:23:42.503Z,69.98
2018-02-22T03:24:23.057Z,69.7
2018-02-22T03:25:03.614Z,69.7
2018-02-22T03:25:44.166Z,69.79
2018-02-22T03:26:24.726Z,70.07
2018-02-22T03:27:05.308Z,69.79
2018-02-22T03:27:45.855Z,69.32
2018-02-22T03:28:26.415Z,69.22
2018-02-22T03:29:06.965Z,69.13
2018-02-22T03:29:47.518Z,69.13
2018-02-22T03:30:28.072Z,69.32
2018-02-22T03:31:08.634Z,69.13
2018-02-22T03:31:49.184Z,68.75
2018-02-22T03:32:29.759Z,68.65
2018-02-22T03:33:10.325Z,68.37
2018-02-22T03:33:50.899Z,68.46
2018-02-22T03:34:31.448Z,69.03
2018-02-22T03:35:12.006Z,69.13
2018-02-22T03:35:52.587Z,69.51
2018-02-22T03:36:33.173Z,69.41
2018-02-22T03:37:13.725Z,69.13
2018-02-22T03:37:54.270Z,69.22
2018-02-22T03:38:34.818Z,69.03
2018-02-22T03:39:15.479Z,69.51
2018-02-22T03:39:56.020Z,69.51
2018-02-22T03:40:36.574Z,69.41
2018-02-22T03:41:17.149Z,69.79
2018-02-22T03:41:57.722Z,69.51
2018-02-22T03:42:38.280Z,68.94
2018-02-22T03:43:18.841Z,69.22
2018-02-22T03:43:59.405Z,69.32
2018-02-22T03:44:39.975Z,69.41
2018-02-22T03:45:20.598Z,69.03
2018-02-22T03:46:01.083Z,69.03
2018-02-22T03:46:41.608Z,69.32
2018-02-22T03:47:22.158Z,69.22
2018-02-22T03:48:02.701Z,68.56
2018-02-22T03:48:43.242Z,68.75
2018-02-22T03:49:23.813Z,68.65
2018-02-22T03:50:04.382Z,68.56
2018-02-22T03:50:44.946Z,68.75
2018-02-22T03:51:25.505Z,68.46
2018-02-22T03:52:06.052Z,68.46
2018-02-22T03:52:46.610Z,68.37
2018-02-22T03:53:27.170Z,68.65
2018-02-22T03:54:07.726Z,68.65
2018-02-22T03:54:48.309Z,68.46
2018-02-22T03:55:28.870Z,68.75
2018-02-22T03:56:09.440Z,69.03
2018-02-22T03:56:49.990Z,68.94
2018-02-22T03:57:30.569Z,68.84
2018-02-22T03:58:11.154Z,69.13
2018-02-22T03:58:51.670Z,69.13
2018-02-22T03:59:32.235Z,69.03
2018-02-22T04:00:12.794Z,69.22
2018-02-22T04:00:53.350Z,69.13
2018-02-22T04:01:33.904Z,68.94
2018-02-22T04:02:14.452Z,68.65
2018-02-22T04:02:55.020Z,68.56
2018-02-22T04:03:35.584Z,68.56
2018-02-22T04:04:16.149Z,68.65
2018-02-22T04:04:56.707Z,68.56
2018-02-22T04:05:37.258Z,68.56
2018-02-22T04:06:17.815Z,68.65
2018-02-22T04:06:58.389Z,68.65
2018-02-22T04:07:38.930Z,68.56
2018-02-22T04:08:19.489Z,68.43
2018-02-22T04:09:00.046Z,69.13
2018-02-22T04:09:40.601Z,69.03
2018-02-22T04:10:21.214Z,68.75
2018-02-22T04:11:01.782Z,68.84
2018-02-22T04:11:42.333Z,68.84
2018-02-22T04:12:22.889Z,68.56
2018-02-22T04:13:03.438Z,68.56
2018-02-22T04:13:44.007Z,68.56
2018-02-22T04:14:24.538Z,68.56
2018-02-22T04:15:05.093Z,68.37
2018-02-22T04:15:45.639Z,68.37
2018-02-22T04:16:26.200Z,68.75
2018-02-22T04:17:06.755Z,68.27
2018-02-22T04:17:47.330Z,68.18
2018-02-22T04:18:27.890Z,68.18
2018-02-22T04:19:08.454Z,68.46
2018-02-22T04:19:49.009Z,68.56
2018-02-22T04:20:29.560Z,68.46
2018-02-22T04:21:10.114Z,68.56
2018-02-22T04:21:50.668Z,68.56
2018-02-22T04:22:31.227Z,68.37
2018-02-22T04:23:11.797Z,68.27
2018-02-22T04:23:52.372Z,68.71
2018-02-22T04:24:32.936Z,68.46
2018-02-22T04:25:13.528Z,68.65
2018-02-22T04:25:54.032Z,68.75
2018-02-22T04:26:34.585Z,68.46
2018-02-22T04:27:15.164Z,68.56
2018-02-22T04:27:55.711Z,68.37
2018-02-22T04:28:36.280Z,68.46
2018-02-22T04:29:16.836Z,68.56
2018-02-22T04:29:57.401Z,68.46
2018-02-22T04:30:37.968Z,68.56
2018-02-22T04:31:18.553Z,68.33
2018-02-22T04:31:59.104Z,68.46
2018-02-22T04:32:39.671Z,68.46
2018-02-22T04:33:20.228Z,68.46
2018-02-22T04:34:00.792Z,68.56
2018-02-22T04:34:41.399Z,68.84
2018-02-22T04:35:21.971Z,68.27
2018-02-22T04:36:02.509Z,68.75
2018-02-22T04:36:43.089Z,68.37
2018-02-22T04:37:23.643Z,68.18
2018-02-22T04:38:04.194Z,68.46
2018-02-22T04:38:44.762Z,68.37
2018-02-22T04:39:25.321Z,68.18
2018-02-22T04:40:05.885Z,67.61
2018-02-22T04:40:46.444Z,67.61
2018-02-22T04:41:27.000Z,68.24
2018-02-22T04:42:08.494Z,68.33
2018-02-22T04:42:48.110Z,68.37
2018-02-22T04:43:28.669Z,68.37
2018-02-22T04:44:09.229Z,68.75
2018-02-22T04:44:49.770Z,68.75
2018-02-22T04:45:30.324Z,68.65
2018-02-22T04:46:10.884Z,68.56
2018-02-22T04:46:51.442Z,68.05
2018-02-22T04:47:31.997Z,68.71
2018-02-22T04:48:12.556Z,68.43
2018-02-22T04:48:53.111Z,68.56
2018-02-22T04:49:33.667Z,68.56
2018-02-22T04:50:14.228Z,68.33
2018-02-22T04:50:54.792Z,69.09
2018-02-22T04:51:35.986Z,69.09
2018-02-22T04:52:15.903Z,68.81
2018-02-22T04:52:56.465Z,68.52
2018-02-22T04:53:37.027Z,68.24
2018-02-22T04:54:17.585Z,68.65
2018-02-22T04:54:58.142Z,68.52
2018-02-22T04:55:38.694Z,68.71
2018-02-22T04:56:19.262Z,68.43
2018-02-22T04:56:59.821Z,68.24
2018-02-22T04:57:40.384Z,68.33
2018-02-22T04:58:20.945Z,68.52
2018-02-22T04:59:01.496Z,68.43
2018-02-22T04:59:42.051Z,68.81
2018-02-22T05:00:22.599Z,68.33
2018-02-22T05:01:03.142Z,68.81
2018-02-22T05:01:43.705Z,68.71
2018-02-22T05:02:24.297Z,69.38
2018-02-22T05:03:04.854Z,69.19
2018-02-22T05:03:45.417Z,69.09
2018-02-22T05:04:25.984Z,69.47
2018-02-22T05:05:06.543Z,69.57
2018-02-22T05:05:47.108Z,69.66
2018-02-22T05:06:27.656Z,69.85
2018-02-22T05:07:08.210Z,69.76
2018-02-22T05:07:48.777Z,69.09
2018-02-22T05:08:29.356Z,69.38
2018-02-22T05:09:09.895Z,69.47
2018-02-22T05:09:50.447Z,70.04
2018-02-22T05:10:31.022Z,69.95
2018-02-22T05:11:11.594Z,69.85
2018-02-22T05:11:52.150Z,69.85
2018-02-22T05:12:32.703Z,69.28
2018-02-22T05:13:13.257Z,68.9
2018-02-22T05:13:53.810Z,68.9
2018-02-22T05:14:34.378Z,68.71
2018-02-22T05:15:14.925Z,68.62
2018-02-22T05:15:55.476Z,68.62
2018-02-22T05:16:36.041Z,68.62
2018-02-22T05:17:16.581Z,68.52
2018-02-22T05:17:57.136Z,68.52
2018-02-22T05:18:37.684Z,68.43
2018-02-22T05:19:18.241Z,68.62
2018-02-22T05:19:58.810Z,69.09
2018-02-22T05:20:39.374Z,68.71
2018-02-22T05:21:19.945Z,68.81
2018-02-22T05:22:00.500Z,68.71
2018-02-22T05:22:41.041Z,68.9
2018-02-22T05:23:21.609Z,69.38
2018-02-22T05:24:02.177Z,69.19
2018-02-22T05:24:42.735Z,69.09
2018-02-22T05:25:23.298Z,68.71
2018-02-22T05:26:03.823Z,69.38
2018-02-22T05:26:44.390Z,69.09
2018-02-22T05:27:24.945Z,69.19
2018-02-22T05:28:05.507Z,69.57
2018-02-22T05:28:46.073Z,69.85
2018-02-22T05:29:26.621Z,69.95
2018-02-22T05:30:07.168Z,69.85
2018-02-22T05:30:47.738Z,70.04
2018-02-22T05:31:28.271Z,70.14
2018-02-22T05:32:08.822Z,70.04
2018-02-22T05:32:49.389Z,69.85
2018-02-22T05:33:29.950Z,70.14
2018-02-22T05:34:10.519Z,69.76
2018-02-22T05:34:51.074Z,69.57
2018-02-22T05:35:31.670Z,69.28
2018-02-22T05:36:12.217Z,69.85
2018-02-22T05:36:52.768Z,70.04
2018-02-22T05:37:33.346Z,70.14
2018-02-22T05:38:13.985Z,70.04
2018-02-22T05:38:54.534Z,69.95
2018-02-22T05:39:35.093Z,70.04
2018-02-22T05:40:15.638Z,69.66
2018-02-22T05:40:56.197Z,69.57
2018-02-22T05:41:36.806Z,69.28
2018-02-22T05:42:17.550Z,69
2018-02-22T05:42:58.143Z,69.28
2018-02-22T05:43:38.748Z,69.38
2018-02-22T05:44:19.257Z,69.76
2018-02-22T05:44:59.796Z,69.85
2018-02-22T05:45:40.362Z,69.76
2018-02-22T05:46:21.042Z,69.76
2018-02-22T05:47:01.594Z,69.95
2018-02-22T05:47:42.207Z,70.14
2018-02-22T05:48:22.773Z,70.51
2018-02-22T05:49:03.316Z,70.14
2018-02-22T05:49:43.917Z,70.51
2018-02-22T05:50:24.480Z,70.1
2018-02-22T05:51:05.042Z,70.51
2018-02-22T05:51:45.602Z,70.51
2018-02-22T05:52:26.185Z,70.89
2018-02-22T05:53:06.724Z,70.79
2018-02-22T05:53:47.271Z,70.51
2018-02-22T05:54:27.981Z,70.42
2018-02-22T05:55:08.523Z,69.85
2018-02-22T05:55:49.089Z,70.14
2018-02-22T05:56:29.650Z,69.85
2018-02-22T05:57:10.212Z,70.23
2018-02-22T05:57:50.829Z,70.14
2018-02-22T05:58:31.414Z,70.23
2018-02-22T05:59:12.092Z,70.51
2018-02-22T05:59:52.648Z,70.79
2018-02-22T06:00:33.215Z,70.14
2018-02-22T06:01:13.786Z,70.04
2018-02-22T06:01:54.333Z,70.42
2018-02-22T06:02:35.047Z,70.04
2018-02-22T06:03:15.564Z,69.85
2018-02-22T06:03:56.145Z,69.85
2018-02-22T06:04:36.978Z,69.76
2018-02-22T06:05:17.533Z,69.85
2018-02-22T06:05:58.262Z,70.14
2018-02-22T06:06:38.745Z,69.95
2018-02-22T06:07:19.901Z,70.04
2018-02-22T06:08:00.450Z,70.14
2018-02-22T06:08:41.088Z,70.14
2018-02-22T06:09:21.662Z,69.57
2018-02-22T06:10:02.228Z,69.47
2018-02-22T06:10:42.784Z,69.09
2018-02-22T06:11:23.332Z,69.38
2018-02-22T06:12:03.900Z,69.28
2018-02-22T06:12:44.446Z,69.38
2018-02-22T06:13:24.996Z,69.85
2018-02-22T06:14:05.555Z,70.04
2018-02-22T06:14:46.095Z,69.47
2018-02-22T06:15:26.647Z,69.76
2018-02-22T06:16:07.184Z,69.28
2018-02-22T06:16:47.778Z,69.09
2018-02-22T06:17:28.321Z,69.85
2018-02-22T06:18:08.893Z,70.23
2018-02-22T06:18:49.453Z,69.95
2018-02-22T06:19:30.019Z,69.76
2018-02-22T06:20:10.579Z,69.76
2018-02-22T06:20:51.133Z,69.66
2018-02-22T06:21:31.692Z,69.95
2018-02-22T06:22:12.263Z,69.85
2018-02-22T06:22:52.791Z,70.14
2018-02-22T06:23:33.339Z,70.23
2018-02-22T06:24:13.893Z,70.04
2018-02-22T06:24:54.438Z,70.23
2018-02-22T06:25:35.002Z,70.23
2018-02-22T06:26:15.547Z,70.42
2018-02-22T06:26:56.106Z,70.42
2018-02-22T06:27:36.674Z,70.61
2018-02-22T06:28:17.235Z,70.32
2018-02-22T06:28:57.766Z,70.04
2018-02-22T06:29:38.467Z,70.32
2018-02-22T06:30:19.053Z,70.51
2018-02-22T06:30:59.612Z,70.51
2018-02-22T06:31:40.189Z,70.61
2018-02-22T06:32:20.741Z,70.32
2018-02-22T06:33:01.311Z,70.23
2018-02-22T06:33:41.877Z,70.32
2018-02-22T06:34:22.423Z,70.42
2018-02-22T06:35:02.996Z,69.95
2018-02-22T06:35:43.565Z,70.04
2018-02-22T06:36:24.121Z,69.95
2018-02-22T06:37:04.686Z,70.04
2018-02-22T06:37:45.240Z,69.85
2018-02-22T06:38:25.801Z,69.85
2018-02-22T06:39:06.360Z,69.76
2018-02-22T06:39:46.995Z,69.76
2018-02-22T06:40:27.542Z,69.76
2018-02-22T06:41:08.082Z,69.85
2018-02-22T06:41:48.633Z,69.57
2018-02-22T06:42:29.191Z,69.76
2018-02-22T06:43:09.765Z,69.95
2018-02-22T06:43:50.328Z,69.95
2018-02-22T06:44:30.878Z,69.85
2018-02-22T06:45:11.446Z,69.57
2018-02-22T06:45:52.019Z,70.14
2018-02-22T06:46:32.578Z,69.95
2018-02-22T06:47:13.155Z,69.95
2018-02-22T06:47:53.720Z,70.51
2018-02-22T06:48:34.278Z,70.32
2018-02-22T06:49:14.836Z,70.23
2018-02-22T06:49:55.373Z,70.61
2018-02-22T06:50:35.943Z,70.7
2018-02-22T06:51:16.502Z,70.51
2018-02-22T06:51:57.049Z,70.51
2018-02-22T06:52:37.613Z,70.79
2018-02-22T06:53:18.172Z,70.61
2018-02-22T06:53:58.741Z,70.7
2018-02-22T06:54:39.665Z,70.51
2018-02-22T06:55:20.406Z,70.61
2018-02-22T06:56:00.972Z,70.04
2018-02-22T06:56:41.537Z,69.95
2018-02-22T06:57:22.085Z,70.61
2018-02-22T06:58:03.332Z,70.61
2018-02-22T06:58:43.882Z,70.57
2018-02-22T06:59:24.483Z,70.61
2018-02-22T07:00:05.052Z,70.51
2018-02-22T07:00:45.606Z,70.61
2018-02-22T07:01:26.143Z,70.61
2018-02-22T07:02:06.703Z,70.7
2018-02-22T07:02:47.304Z,70.51
2018-02-22T07:03:27.913Z,70.61
2018-02-22T07:04:08.902Z,70.32
2018-02-22T07:04:49.446Z,70.67
2018-02-22T07:05:30.659Z,70.42
2018-02-22T07:06:14.283Z,70.23
2018-02-22T07:06:55.126Z,70.61
2018-02-22T07:07:35.666Z,70.23
2018-02-22T07:08:16.232Z,70.51
2018-02-22T07:08:57.538Z,70.79
2018-02-22T07:09:38.529Z,70.61
2018-02-22T07:11:39.661Z,71.14
2018-02-22T07:12:20.211Z,71.23
2018-02-22T07:13:00.770Z,71.33
2018-02-22T07:13:41.354Z,71.33
2018-02-22T07:14:21.904Z,71.33
2018-02-22T07:15:02.471Z,71.33
2018-02-22T07:15:43.040Z,71.42
2018-02-22T07:16:23.621Z,71.52
2018-02-22T07:17:04.187Z,71.23
2018-02-22T07:17:44.760Z,71.42
2018-02-22T07:18:25.349Z,71.71
2018-02-22T07:19:05.856Z,71.71
2018-02-22T07:19:46.457Z,71.42
2018-02-22T07:20:27.068Z,71.99
2018-02-22T07:21:07.583Z,71.84
2018-02-22T07:21:48.120Z,71.14
2018-02-22T07:22:29.781Z,71.52
2018-02-22T07:23:16.788Z,71.14
2018-02-22T07:23:50.824Z,71.14
2018-02-22T07:24:34.749Z,71.23
2018-02-22T07:25:15.320Z,71.33
2018-02-22T07:25:55.857Z,71.52
2018-02-22T07:26:36.420Z,71.52
2018-02-22T07:27:16.907Z,71.52
2018-02-22T07:27:57.507Z,71.36
2018-02-22T07:28:38.079Z,71.17
2018-02-22T07:29:18.648Z,71.36
2018-02-22T07:29:59.139Z,70.42
2018-02-22T07:30:39.675Z,71.08
2018-02-22T07:31:20.238Z,70.61
2018-02-22T07:32:00.704Z,70.32
2018-02-22T07:32:41.177Z,70.51
2018-02-22T07:33:21.704Z,70.61
2018-02-22T07:34:02.256Z,70.61
2018-02-22T07:34:42.789Z,70.39
2018-02-22T07:35:23.333Z,71.33
2018-02-22T07:36:03.883Z,71.17
2018-02-22T07:36:44.402Z,71.27
2018-02-22T07:37:24.941Z,70.14
2018-02-22T07:38:05.498Z,70.89
2018-02-22T07:38:46.001Z,70.51
2018-02-22T07:39:26.631Z,69.76
2018-02-22T07:40:07.192Z,69.95
2018-02-22T07:40:47.727Z,70.14
2018-02-22T07:41:28.235Z,69.47
2018-02-22T07:42:08.792Z,70.04
2018-02-22T07:42:49.309Z,69.85
2018-02-22T07:43:29.850Z,69.95
2018-02-22T07:44:10.955Z,69.95
2018-02-22T07:44:50.876Z,69.85
2018-02-22T07:45:31.407Z,69.85
2018-02-22T07:46:11.953Z,69.76
2018-02-22T07:46:52.516Z,69.85
2018-02-22T07:47:33.056Z,70.04
2018-02-22T07:48:13.629Z,69.66
2018-02-22T07:48:54.137Z,70.14
2018-02-22T07:49:34.685Z,70.42
2018-02-22T07:50:15.227Z,69.95
2018-02-22T07:50:55.885Z,70.14
2018-02-22T07:51:36.427Z,69.95
2018-02-22T07:52:17.006Z,69.95
2018-02-22T07:52:57.555Z,69.76
2018-02-22T07:53:38.110Z,69.76
2018-02-22T07:54:18.688Z,69.85
2018-02-22T07:54:59.233Z,69.76
2018-02-22T07:55:39.795Z,69.66
2018-02-22T07:56:20.340Z,69.57
2018-02-22T07:57:00.920Z,69.57
2018-02-22T07:57:41.506Z,69.76
2018-02-22T07:58:22.110Z,69.28
2018-02-22T07:59:02.685Z,69
2018-02-22T07:59:43.249Z,69.47
2018-02-22T08:00:23.818Z,69.85
2018-02-22T08:01:04.368Z,70.04
2018-02-22T08:01:45.012Z,69.95
2018-02-22T08:02:25.499Z,69.57
2018-02-22T08:03:06.045Z,69.47
2018-02-22T08:03:46.593Z,69.95
2018-02-22T08:04:27.143Z,70.04
2018-02-22T08:05:07.703Z,69.85
2018-02-22T08:05:48.264Z,70.23
2018-02-22T08:06:28.942Z,69.76
2018-02-22T08:07:09.503Z,70.04
2018-02-22T08:07:50.050Z,69.95
2018-02-22T08:08:30.602Z,69.95
2018-02-22T08:09:11.147Z,69.95
2018-02-22T08:09:51.702Z,69.95
2018-02-22T08:10:32.802Z,70.04
2018-02-22T08:11:13.302Z,69.85
2018-02-22T08:11:53.844Z,69.28
2018-02-22T08:12:34.396Z,69.28
2018-02-22T08:13:14.961Z,69.28
2018-02-22T08:13:55.526Z,69.09
2018-02-22T08:14:36.090Z,69
2018-02-22T08:15:16.641Z,69.57
2018-02-22T08:15:57.205Z,69.09
2018-02-22T08:16:38.418Z,68.71
2018-02-22T08:17:19.960Z,68.9
2018-02-22T08:17:59.534Z,68.94
2018-02-22T08:18:40.089Z,68.52
2018-02-22T08:19:20.659Z,68.81
2018-02-22T08:20:01.325Z,69.38
2018-02-22T08:20:41.893Z,69.38
2018-02-22T08:21:22.749Z,69.09
2018-02-22T08:22:04.041Z,68.81
2018-02-22T08:22:45.060Z,68.71
2018-02-22T08:23:26.286Z,68.37
2018-02-22T08:24:07.501Z,68.75
2018-02-22T08:24:48.621Z,68.65
2018-02-22T08:25:29.620Z,68.18
2018-02-22T08:26:10.268Z,68.08
2018-02-22T08:26:51.365Z,67.8
2018-02-22T08:27:31.957Z,67.8
2018-02-22T08:28:12.531Z,67.71
2018-02-22T08:28:53.069Z,67.33
2018-02-22T08:29:33.768Z,67.24
2018-02-22T08:30:14.616Z,67.33
2018-02-22T08:30:55.382Z,67.05
2018-02-22T08:31:36.202Z,67.39
2018-02-22T08:32:16.993Z,67.33
2018-02-22T08:32:57.862Z,67.71
2018-02-22T08:33:38.703Z,67.24
2018-02-22T08:34:19.365Z,68.27
2018-02-22T08:34:59.912Z,67.33
2018-02-22T08:35:40.527Z,67.24
2018-02-22T08:36:21.104Z,67.24
2018-02-22T08:37:01.648Z,67.61
2018-02-22T08:37:42.346Z,67.14
2018-02-22T08:38:22.913Z,67.43
2018-02-22T08:39:03.463Z,67.43
2018-02-22T08:39:44.100Z,67.43
2018-02-22T08:40:24.647Z,67.33
2018-02-22T08:41:05.181Z,66.95
2018-02-22T08:41:45.747Z,67.24
2018-02-22T08:42:26.384Z,66.95
2018-02-22T08:43:06.878Z,67.24
2018-02-22T08:43:47.419Z,67.33
2018-02-22T08:44:27.981Z,67.3
2018-02-22T08:45:08.538Z,67.58
2018-02-22T08:45:49.110Z,67.52